createdAt,value
2018-05-10T00:00:02.450Z,40.19
2018-05-10T00:01:02.460Z,40.19
2018-05-10T00:02:02.489Z,40.19
2018-05-10T00:03:02.253Z,40.09
2018-05-10T00:04:02.526Z,40.37
2018-05-10T00:05:02.588Z,40.66
2018-05-10T00:06:02.595Z,40.19
2018-05-10T00:07:02.670Z,40.19
2018-05-10T00:08:02.655Z,40.37
2018-05-10T00:09:02.666Z,40.76
2018-05-10T00:10:02.688Z,40.28
2018-05-10T00:11:02.709Z,40.09
2018-05-10T00:12:02.461Z,40.19
2018-05-10T00:13:02.741Z,40.57
2018-05-10T00:14:02.801Z,40.28
2018-05-10T00:15:02.803Z,40.36
2018-05-10T00:16:02.815Z,40.26
2018-05-10T00:17:02.847Z,40.28
2018-05-10T00:18:02.860Z,40.26
2018-05-10T00:19:02.638Z,40.28
2018-05-10T00:20:02.912Z,40.37
2018-05-10T00:21:02.948Z,40.57
2018-05-10T00:22:02.972Z,40.64
2018-05-10T00:23:02.996Z,40.55
2018-05-10T00:24:02.735Z,40.45
2018-05-10T00:25:03.038Z,40.45
2018-05-10T00:26:03.047Z,40.45
2018-05-10T00:27:03.073Z,40.55
2018-05-10T00:28:02.857Z,40.74
2018-05-10T00:29:02.858Z,41.03
2018-05-10T00:30:03.150Z,41.13
2018-05-10T00:31:03.192Z,41.03
2018-05-10T00:32:03.208Z,41.13
2018-05-10T00:33:02.945Z,41.03
2018-05-10T00:34:03.245Z,40.64
2018-05-10T00:35:03.001Z,40.94
2018-05-10T00:36:03.028Z,40.84
2018-05-10T00:37:03.047Z,41.22
2018-05-10T00:38:03.360Z,41.22
2018-05-10T00:39:03.088Z,41.32
2018-05-10T00:40:03.380Z,41.22
2018-05-10T00:41:03.420Z,41.13
2018-05-10T00:42:03.176Z,41.13
2018-05-10T00:43:03.187Z,41.32
2018-05-10T00:44:03.533Z,41.22
2018-05-10T00:45:03.490Z,41.22
2018-05-10T00:46:03.530Z,41.32
2018-05-10T00:47:03.554Z,41.32
2018-05-10T00:48:03.580Z,41.13
2018-05-10T00:49:03.600Z,41.13
2018-05-10T00:50:03.373Z,41.11
2018-05-10T00:51:03.657Z,41.13
2018-05-10T00:52:03.663Z,41.11
2018-05-10T00:53:03.691Z,41.01
2018-05-10T00:54:03.727Z,41.22
2018-05-10T00:55:03.463Z,41.11
2018-05-10T00:56:03.764Z,40.91
2018-05-10T00:57:03.789Z,41.49
2018-05-10T00:58:03.810Z,41.01
2018-05-10T00:59:03.564Z,41.49
2018-05-10T01:00:03.846Z,41.68
2018-05-10T01:01:03.607Z,41.97
2018-05-10T01:02:03.633Z,41.78
2018-05-10T01:03:04.289Z,42.07
2018-05-10T01:04:03.670Z,42.07
2018-05-10T01:05:03.730Z,41.78
2018-05-10T01:06:03.713Z,42.07
2018-05-10T01:07:03.735Z,42.07
2018-05-10T01:08:04.045Z,42.26
2018-05-10T01:09:03.798Z,42.07
2018-05-10T01:10:04.081Z,42.07
2018-05-10T01:11:04.110Z,41.97
2018-05-10T01:12:04.137Z,42.36
2018-05-10T01:13:04.157Z,42.26
2018-05-10T01:14:04.167Z,42.46
2018-05-10T01:15:04.209Z,42.26
2018-05-10T01:16:03.960Z,42.26
2018-05-10T01:17:03.972Z,42.55
2018-05-10T01:18:03.999Z,42.55
2018-05-10T01:19:04.026Z,42.74
2018-05-10T01:20:04.493Z,42.43
2018-05-10T01:21:04.332Z,42.53
2018-05-10T01:22:04.406Z,42.36
2018-05-10T01:23:04.124Z,42.33
2018-05-10T01:24:04.408Z,42.26
2018-05-10T01:25:04.154Z,43.03
2018-05-10T01:26:04.212Z,43.11
2018-05-10T01:27:04.466Z,43.11
2018-05-10T01:28:04.227Z,43.01
2018-05-10T01:29:04.515Z,42.63
2018-05-10T01:30:04.539Z,42.53
2018-05-10T01:31:04.566Z,42.43
2018-05-10T01:32:04.638Z,42.72
2018-05-10T01:33:04.354Z,43.11
2018-05-10T01:34:04.645Z,42.43
2018-05-10T01:35:04.398Z,42.33
2018-05-10T01:36:04.669Z,42.72
2018-05-10T01:37:04.742Z,42.63
2018-05-10T01:38:04.458Z,42.43
2018-05-10T01:39:04.484Z,42.43
2018-05-10T01:40:04.505Z,42.63
2018-05-10T01:41:04.807Z,42.82
2018-05-10T01:42:04.812Z,43.11
2018-05-10T01:43:04.837Z,43.11
2018-05-10T01:44:04.605Z,42.82
2018-05-10T01:45:04.619Z,42.72
2018-05-10T01:46:04.645Z,42.63
2018-05-10T01:47:04.921Z,42.82
2018-05-10T01:48:04.688Z,42.82
2018-05-10T01:49:04.973Z,42.72
2018-05-10T01:50:04.722Z,42.82
2018-05-10T01:51:04.754Z,42.91
2018-05-10T01:52:05.105Z,42.82
2018-05-10T01:53:05.079Z,42.7
2018-05-10T01:54:05.079Z,42.63
2018-05-10T01:55:05.101Z,42.7
2018-05-10T01:56:05.137Z,43.11
2018-05-10T01:57:05.149Z,42.91
2018-05-10T01:58:05.193Z,43.18
2018-05-10T01:59:04.941Z,43.01
2018-05-10T02:00:05.230Z,43.18
2018-05-10T02:01:05.266Z,43.66
2018-05-10T02:02:04.995Z,43.37
2018-05-10T02:03:05.299Z,43.57
2018-05-10T02:04:05.320Z,43.85
2018-05-10T02:05:05.351Z,42.89
2018-05-10T02:06:05.371Z,43.18
2018-05-10T02:07:05.171Z,43.37
2018-05-10T02:08:05.399Z,43.28
2018-05-10T02:09:05.166Z,43.47
2018-05-10T02:10:05.440Z,43.37
2018-05-10T02:11:05.466Z,43.47
2018-05-10T02:12:05.227Z,43.66
2018-05-10T02:13:05.243Z,43.57
2018-05-10T02:14:05.533Z,43.37
2018-05-10T02:15:05.552Z,43.37
2018-05-10T02:16:05.597Z,43.28
2018-05-10T02:17:05.603Z,44.05
2018-05-10T02:18:05.625Z,43.95
2018-05-10T02:19:05.378Z,43.76
2018-05-10T02:20:05.664Z,43.85
2018-05-10T02:21:05.428Z,43.85
2018-05-10T02:22:05.727Z,43.95
2018-05-10T02:23:05.738Z,43.95
2018-05-10T02:24:05.772Z,43.95
2018-05-10T02:25:05.517Z,43.95
2018-05-10T02:26:05.549Z,43.66
2018-05-10T02:27:05.844Z,43.85
2018-05-10T02:28:05.844Z,43.66
2018-05-10T02:29:05.890Z,43.54
2018-05-10T02:30:05.639Z,43.45
2018-05-10T02:31:05.928Z,43.57
2018-05-10T02:32:05.682Z,43.66
2018-05-10T02:33:05.980Z,43.66
2018-05-10T02:34:05.981Z,43.95
2018-05-10T02:35:06.019Z,43.45
2018-05-10T02:36:06.034Z,43.54
2018-05-10T02:37:05.794Z,43.54
2018-05-10T02:38:06.087Z,43.45
2018-05-10T02:39:06.113Z,43.54
2018-05-10T02:40:05.857Z,43.35
2018-05-10T02:41:06.149Z,43.35
2018-05-10T02:42:06.176Z,43.93
2018-05-10T02:43:06.209Z,43.45
2018-05-10T02:44:05.944Z,43.93
2018-05-10T02:45:06.365Z,43.84
2018-05-10T02:46:06.269Z,43.93
2018-05-10T02:47:06.009Z,43.74
2018-05-10T02:48:06.313Z,43.64
2018-05-10T02:49:06.341Z,43.64
2018-05-10T02:50:06.084Z,43.74
2018-05-10T02:51:06.379Z,44.02
2018-05-10T02:52:06.409Z,44.12
2018-05-10T02:53:06.409Z,44.02
2018-05-10T02:54:06.431Z,44.02
2018-05-10T02:55:06.186Z,44.12
2018-05-10T02:56:06.494Z,43.84
2018-05-10T02:57:06.506Z,44.22
2018-05-10T02:58:06.248Z,44.12
2018-05-10T02:59:06.541Z,44.31
2018-05-10T03:00:06.602Z,44.41
2018-05-10T03:01:06.599Z,44.1
2018-05-10T03:02:06.619Z,44.51
2018-05-10T03:03:06.643Z,44.58
2018-05-10T03:04:06.664Z,44.41
2018-05-10T03:05:06.412Z,44.12
2018-05-10T03:06:06.714Z,44.31
2018-05-10T03:07:06.452Z,44.51
2018-05-10T03:08:06.760Z,44.41
2018-05-10T03:09:06.761Z,44.41
2018-05-10T03:10:06.786Z,44.51
2018-05-10T03:11:06.819Z,44.6
2018-05-10T03:12:06.827Z,44.51
2018-05-10T03:13:06.861Z,44.7
2018-05-10T03:14:06.889Z,44.68
2018-05-10T03:15:06.964Z,44.68
2018-05-10T03:16:06.654Z,44.48
2018-05-10T03:17:06.683Z,44.77
2018-05-10T03:18:06.975Z,44.48
2018-05-10T03:19:06.982Z,44.48
2018-05-10T03:20:07.007Z,44.87
2018-05-10T03:21:07.043Z,44.58
2018-05-10T03:22:07.067Z,44.58
2018-05-10T03:23:07.064Z,44.87
2018-05-10T03:24:07.091Z,44.68
2018-05-10T03:25:07.129Z,44.87
2018-05-10T03:26:07.137Z,44.87
2018-05-10T03:27:07.176Z,44.96
2018-05-10T03:28:07.193Z,44.87
2018-05-10T03:29:07.224Z,44.96
2018-05-10T03:30:07.227Z,44.87
2018-05-10T03:31:07.250Z,44.96
2018-05-10T03:32:07.000Z,45.06
2018-05-10T03:33:07.349Z,44.87
2018-05-10T03:34:07.306Z,44.87
2018-05-10T03:35:07.338Z,44.87
2018-05-10T03:36:07.352Z,44.96
2018-05-10T03:37:07.399Z,44.96
2018-05-10T03:38:07.391Z,44.96
2018-05-10T03:39:07.424Z,44.96
2018-05-10T03:40:07.180Z,45.15
2018-05-10T03:41:07.477Z,45.15
2018-05-10T03:42:07.504Z,45.35
2018-05-10T03:43:07.245Z,45.23
2018-05-10T03:44:07.268Z,45.35
2018-05-10T03:45:07.560Z,45.45
2018-05-10T03:46:07.584Z,45.25
2018-05-10T03:47:07.607Z,45.54
2018-05-10T03:48:07.630Z,45.45
2018-05-10T03:49:07.381Z,45.52
2018-05-10T03:50:07.396Z,45.73
2018-05-10T03:51:07.690Z,45.73
2018-05-10T03:52:07.439Z,45.81
2018-05-10T03:53:07.782Z,45.54
2018-05-10T03:54:07.739Z,45.52
2018-05-10T03:55:07.786Z,45.52
2018-05-10T03:56:07.808Z,45.61
2018-05-10T03:57:07.826Z,45.61
2018-05-10T03:58:07.850Z,45.54
2018-05-10T03:59:07.855Z,45.61
2018-05-10T04:00:07.620Z,45.61
2018-05-10T04:01:07.639Z,45.61
2018-05-10T04:02:07.652Z,45.71
2018-05-10T04:03:07.680Z,46.09
2018-05-10T04:04:07.960Z,46
2018-05-10T04:05:07.984Z,46.09
2018-05-10T04:06:08.172Z,46.09
2018-05-10T04:07:08.025Z,46.28
2018-05-10T04:08:08.065Z,46.48
2018-05-10T04:09:08.087Z,46.58
2018-05-10T04:10:08.089Z,46.38
2018-05-10T04:11:08.130Z,46.58
2018-05-10T04:12:08.136Z,46.48
2018-05-10T04:13:07.930Z,46.58
2018-05-10T04:14:08.227Z,46.67
2018-05-10T04:15:08.201Z,47.05
2018-05-10T04:16:08.307Z,46.96
2018-05-10T04:17:08.238Z,46.96
2018-05-10T04:18:08.281Z,47.15
2018-05-10T04:19:08.303Z,46.86
2018-05-10T04:20:08.042Z,46.96
2018-05-10T04:21:08.328Z,47.15
2018-05-10T04:22:08.085Z,46.77
2018-05-10T04:23:08.376Z,47.25
2018-05-10T04:24:08.136Z,47.25
2018-05-10T04:25:08.227Z,47.44
2018-05-10T04:26:08.440Z,46.86
2018-05-10T04:27:08.480Z,47.44
2018-05-10T04:28:08.213Z,47.44
2018-05-10T04:29:08.502Z,47.34
2018-05-10T04:30:08.252Z,47.15
2018-05-10T04:31:08.272Z,47.53
2018-05-10T04:32:08.567Z,47.53
2018-05-10T04:33:08.321Z,47.53
2018-05-10T04:34:08.621Z,47.34
2018-05-10T04:35:08.358Z,47.53
2018-05-10T04:36:08.387Z,47.53
2018-05-10T04:37:08.674Z,47.15
2018-05-10T04:38:08.713Z,47.82
2018-05-10T04:39:08.720Z,47.92
2018-05-10T04:40:08.477Z,48.11
2018-05-10T04:41:08.760Z,47.53
2018-05-10T04:42:08.803Z,48.3
2018-05-10T04:43:08.803Z,48.02
2018-05-10T04:44:08.846Z,47.92
2018-05-10T04:45:08.922Z,48.4
2018-05-10T04:46:08.869Z,47.92
2018-05-10T04:47:08.903Z,48.49
2018-05-10T04:48:08.928Z,48.4
2018-05-10T04:49:08.927Z,48.02
2018-05-10T04:50:08.962Z,48.49
2018-05-10T04:51:08.712Z,48.49
2018-05-10T04:52:08.734Z,48.4
2018-05-10T04:53:09.027Z,48.59
2018-05-10T04:54:08.785Z,48.79
2018-05-10T04:55:09.079Z,48.69
2018-05-10T04:56:08.822Z,49.17
2018-05-10T04:57:09.106Z,49.55
2018-05-10T04:58:09.125Z,49.46
2018-05-10T04:59:09.148Z,49.74
2018-05-10T05:00:09.180Z,50.13
2018-05-10T05:01:09.188Z,50.03
2018-05-10T05:02:09.218Z,49.46
2018-05-10T05:03:08.976Z,50.13
2018-05-10T05:04:09.300Z,49.84
2018-05-10T05:05:09.276Z,50.51
2018-05-10T05:06:09.036Z,50.7
2018-05-10T05:07:09.051Z,50.03
2018-05-10T05:08:09.348Z,50.13
2018-05-10T05:09:09.521Z,50.8
2018-05-10T05:10:09.382Z,50.9
2018-05-10T05:11:09.402Z,50.61
2018-05-10T05:12:09.428Z,50.9
2018-05-10T05:13:09.451Z,50.9
2018-05-10T05:14:09.491Z,50.8
2018-05-10T05:15:09.500Z,50.99
2018-05-10T05:16:09.510Z,50.9
2018-05-10T05:17:09.531Z,50.61
2018-05-10T05:18:09.297Z,51.18
2018-05-10T05:19:09.573Z,51.37
2018-05-10T05:20:09.610Z,51.28
2018-05-10T05:21:09.619Z,51.47
2018-05-10T05:22:09.633Z,51.18
2018-05-10T05:23:09.657Z,51.47
2018-05-10T05:24:09.417Z,51.67
2018-05-10T05:25:09.696Z,51.95
2018-05-10T05:26:09.738Z,51.28
2018-05-10T05:27:09.753Z,51.47
2018-05-10T05:28:09.765Z,51.37
2018-05-10T05:29:09.800Z,51.28
2018-05-10T05:30:09.834Z,51.09
2018-05-10T05:31:09.562Z,51.28
2018-05-10T05:32:09.865Z,51.18
2018-05-10T05:33:09.870Z,51.67
2018-05-10T05:34:09.632Z,51.76
2018-05-10T05:35:09.912Z,51.95
2018-05-10T05:36:09.954Z,52.05
2018-05-10T05:37:09.960Z,51.37
2018-05-10T05:38:09.731Z,51.57
2018-05-10T05:39:10.009Z,51.95
2018-05-10T05:40:10.049Z,51.67
2018-05-10T05:41:10.242Z,51.69
2018-05-10T05:42:10.072Z,51.86
2018-05-10T05:43:10.137Z,51.09
2018-05-10T05:44:09.836Z,51.67
2018-05-10T05:45:09.868Z,51.69
2018-05-10T05:46:10.161Z,51.31
2018-05-10T05:47:10.179Z,51.59
2018-05-10T05:48:10.191Z,51.47
2018-05-10T05:49:10.211Z,51.18
2018-05-10T05:50:10.247Z,51.21
2018-05-10T05:51:10.299Z,51.31
2018-05-10T05:52:10.273Z,51.57
2018-05-10T05:53:10.299Z,51.4
2018-05-10T05:54:10.331Z,51.28
2018-05-10T05:55:10.504Z,51.4
2018-05-10T05:56:10.091Z,51.21
2018-05-10T05:57:10.400Z,51.21
2018-05-10T05:58:10.150Z,50.92
2018-05-10T05:59:10.159Z,51.31
2018-05-10T06:00:10.181Z,51.21
2018-05-10T06:01:10.464Z,51.31
2018-05-10T06:02:10.242Z,51.11
2018-05-10T06:03:10.526Z,51.79
2018-05-10T06:04:10.530Z,51.69
2018-05-10T06:05:10.570Z,51.31
2018-05-10T06:06:10.303Z,51.02
2018-05-10T06:07:10.608Z,51.59
2018-05-10T06:08:10.618Z,51.98
2018-05-10T06:09:10.639Z,51.98
2018-05-10T06:10:10.403Z,51.79
2018-05-10T06:11:10.693Z,51.98
2018-05-10T06:12:10.718Z,51.79
2018-05-10T06:13:10.742Z,51.88
2018-05-10T06:14:10.763Z,51.98
2018-05-10T06:15:10.766Z,51.5
2018-05-10T06:16:10.805Z,51.59
2018-05-10T06:17:10.832Z,51.91
2018-05-10T06:18:10.571Z,51.91
2018-05-10T06:19:10.867Z,51.23
2018-05-10T06:20:10.894Z,50.76
2018-05-10T06:21:10.917Z,50.46
2018-05-10T06:22:10.920Z,50.37
2018-05-10T06:23:10.679Z,50.76
2018-05-10T06:24:10.958Z,50.76
2018-05-10T06:25:11.320Z,50.85
2018-05-10T06:26:11.025Z,50.46
2018-05-10T06:27:11.045Z,50.27
2018-05-10T06:28:11.058Z,50.37
2018-05-10T06:29:11.081Z,50.46
2018-05-10T06:30:11.107Z,50.27
2018-05-10T06:31:10.843Z,50.18
2018-05-10T06:32:11.145Z,50.08
2018-05-10T06:33:11.173Z,49.89
2018-05-10T06:34:11.192Z,50.08
2018-05-10T06:35:10.946Z,50.37
2018-05-10T06:36:11.238Z,50.68
2018-05-10T06:37:11.261Z,49.89
2018-05-10T06:38:11.278Z,50.46
2018-05-10T06:39:11.019Z,50.01
2018-05-10T06:40:11.330Z,50.2
2018-05-10T06:41:11.060Z,50.4
2018-05-10T06:42:11.347Z,50.4
2018-05-10T06:43:11.390Z,50.3
2018-05-10T06:44:11.411Z,50.78
2018-05-10T06:45:11.432Z,50.4
2018-05-10T06:46:11.460Z,50.68
2018-05-10T06:47:11.203Z,50.49
2018-05-10T06:48:11.491Z,50.87
2018-05-10T06:49:11.521Z,50.68
2018-05-10T06:50:11.263Z,50.68
2018-05-10T06:51:11.565Z,50.78
2018-05-10T06:52:11.577Z,50.78
2018-05-10T06:53:11.594Z,50.78
2018-05-10T06:54:11.341Z,50.99
2018-05-10T06:55:11.694Z,50.99
2018-05-10T06:56:11.395Z,50.71
2018-05-10T06:57:11.418Z,50.71
2018-05-10T06:58:11.430Z,50.71
2018-05-10T06:59:11.458Z,50.51
2018-05-10T07:00:11.847Z,50.51
2018-05-10T07:01:11.777Z,50.61
2018-05-10T07:02:11.792Z,50.61
2018-05-10T07:03:11.824Z,50.9
2018-05-10T07:04:11.828Z,50.32
2018-05-10T07:05:11.906Z,50.42
2018-05-10T07:06:11.885Z,50.93
2018-05-10T07:07:11.913Z,50.83
2018-05-10T07:08:11.930Z,50.83
2018-05-10T07:09:11.957Z,50.63
2018-05-10T07:10:12.025Z,51.02
2018-05-10T07:11:11.982Z,50.15
2018-05-10T07:12:12.003Z,50.06
2018-05-10T07:13:12.025Z,50.25
2018-05-10T07:14:12.061Z,50.57
2018-05-10T07:15:12.071Z,50.57
2018-05-10T07:16:12.103Z,50.85
2018-05-10T07:17:12.118Z,50.27
2018-05-10T07:18:11.876Z,50.3
2018-05-10T07:19:12.246Z,50.01
2018-05-10T07:20:12.197Z,50.21
2018-05-10T07:21:12.220Z,50.4
2018-05-10T07:22:12.240Z,50.01
2018-05-10T07:23:12.261Z,49.53
2018-05-10T07:24:12.291Z,49.53
2018-05-10T07:25:12.498Z,49.65
2018-05-10T07:26:12.060Z,49.55
2018-05-10T07:27:12.349Z,49.27
2018-05-10T07:28:12.090Z,49.17
2018-05-10T07:29:12.399Z,49.17
2018-05-10T07:30:12.432Z,48.97
2018-05-10T07:31:12.427Z,48.97
2018-05-10T07:32:12.466Z,48.42
2018-05-10T07:33:12.471Z,47.94
2018-05-10T07:34:12.491Z,47.65
2018-05-10T07:35:12.581Z,47.55
2018-05-10T07:36:12.543Z,47.65
2018-05-10T07:37:12.564Z,47.36
2018-05-10T07:38:12.325Z,47.55
2018-05-10T07:39:12.616Z,47.48
2018-05-10T07:40:12.649Z,47.58
2018-05-10T07:41:12.649Z,47.29
2018-05-10T07:42:12.913Z,47.38
2018-05-10T07:43:12.698Z,47
2018-05-10T07:44:12.461Z,46.73
2018-05-10T07:45:12.755Z,46.06
2018-05-10T07:46:12.763Z,46.44
2018-05-10T07:47:12.632Z,46.44
2018-05-10T07:48:12.816Z,46.34
2018-05-10T07:49:12.838Z,45.96
2018-05-10T07:50:12.925Z,45.59
2018-05-10T07:51:12.906Z,45.59
2018-05-10T07:52:12.634Z,45.4
2018-05-10T07:53:13.075Z,45.21
2018-05-10T07:54:12.963Z,44.92
2018-05-10T07:55:12.971Z,44.94
2018-05-10T07:56:13.011Z,44.65
2018-05-10T07:57:13.020Z,44.65
2018-05-10T07:58:13.048Z,44.46
2018-05-10T07:59:13.087Z,44.36
2018-05-10T08:00:13.113Z,43.78
2018-05-10T08:01:13.122Z,44.17
2018-05-10T08:02:13.231Z,43.9
2018-05-10T08:03:13.163Z,43.9
2018-05-10T08:04:13.194Z,43.99
2018-05-10T08:05:12.952Z,44.09
2018-05-10T08:06:13.232Z,43.9
2018-05-10T08:07:13.250Z,43.61
2018-05-10T08:08:13.289Z,43.54
2018-05-10T08:09:13.330Z,43.44
2018-05-10T08:10:13.504Z,43.44
2018-05-10T08:11:13.355Z,43.63
2018-05-10T08:12:13.102Z,43.44
2018-05-10T08:13:13.395Z,43.15
2018-05-10T08:14:13.424Z,42.86
2018-05-10T08:15:13.463Z,43.05
2018-05-10T08:16:13.203Z,43.07
2018-05-10T08:17:13.637Z,42.57
2018-05-10T08:18:13.529Z,42.68
2018-05-10T08:19:13.551Z,42.68
2018-05-10T08:20:13.576Z,42.59
2018-05-10T08:21:13.606Z,42.32
2018-05-10T08:22:13.607Z,42.51
2018-05-10T08:23:13.648Z,42.32
2018-05-10T08:24:13.827Z,42.13
2018-05-10T08:25:13.429Z,42.13
2018-05-10T08:26:13.726Z,41.35
2018-05-10T08:27:13.752Z,41.55
2018-05-10T08:28:13.496Z,41.47
2018-05-10T08:29:13.525Z,41.27
2018-05-10T08:30:13.552Z,41.17
2018-05-10T08:31:13.614Z,41.27
2018-05-10T08:32:13.852Z,41.37
2018-05-10T08:33:13.632Z,41.08
2018-05-10T08:34:13.906Z,41.2
2018-05-10T08:35:13.939Z,40.71
2018-05-10T08:36:13.950Z,40.61
2018-05-10T08:37:13.985Z,40.23
2018-05-10T08:38:13.738Z,40.23
2018-05-10T08:39:14.044Z,40.03
2018-05-10T08:40:14.072Z,39.76
2018-05-10T08:41:14.141Z,39.37
2018-05-10T08:42:14.111Z,38.89
2018-05-10T08:43:14.142Z,39.08
2018-05-10T08:44:14.163Z,38.62
2018-05-10T08:45:14.196Z,38.23
2018-05-10T08:46:14.259Z,38.32
2018-05-10T08:47:14.241Z,37.74
2018-05-10T08:48:14.260Z,37.18
2018-05-10T08:49:14.018Z,37.57
2018-05-10T08:50:14.026Z,37.28
2018-05-10T08:51:14.335Z,37.08
2018-05-10T08:52:14.358Z,37.01
2018-05-10T08:53:14.117Z,36.61
2018-05-10T08:54:14.415Z,36.42
2018-05-10T08:55:14.431Z,35.84
2018-05-10T08:56:14.515Z,35.94
2018-05-10T08:57:14.221Z,35.66
2018-05-10T08:58:14.499Z,35.66
2018-05-10T08:59:14.534Z,35.96
2018-05-10T09:00:14.566Z,35.76
2018-05-10T09:01:14.643Z,35.57
2018-05-10T09:02:14.624Z,35.27
2018-05-10T09:03:14.637Z,35.37
2018-05-10T09:04:14.666Z,35.17
2018-05-10T09:05:14.679Z,34.4
2018-05-10T09:06:14.435Z,34.9
2018-05-10T09:07:14.736Z,34.2
2018-05-10T09:08:14.752Z,34.03
2018-05-10T09:09:14.792Z,33.73
2018-05-10T09:10:14.826Z,33.73
2018-05-10T09:11:14.837Z,33.64
2018-05-10T09:12:14.869Z,33.64
2018-05-10T09:13:14.613Z,33.44
2018-05-10T09:14:14.905Z,33.64
2018-05-10T09:15:14.666Z,33.15
2018-05-10T09:16:14.691Z,33.34
2018-05-10T09:17:15.069Z,33.34
2018-05-10T09:18:15.023Z,33.25
2018-05-10T09:19:15.039Z,33.36
2018-05-10T09:20:15.259Z,33.26
2018-05-10T09:21:15.089Z,33.36
2018-05-10T09:22:14.854Z,33.36
2018-05-10T09:23:14.892Z,33.36
2018-05-10T09:24:15.175Z,33.36
2018-05-10T09:25:15.225Z,33.26
2018-05-10T09:26:15.228Z,33.17
2018-05-10T09:27:15.262Z,33.36
2018-05-10T09:28:15.291Z,33.65
2018-05-10T09:29:15.325Z,33.38
2018-05-10T09:30:15.344Z,33.46
2018-05-10T09:31:15.361Z,33.38
2018-05-10T09:32:15.398Z,33.67
2018-05-10T09:33:15.417Z,33.38
2018-05-10T09:34:15.444Z,33.58
2018-05-10T09:35:15.466Z,33.18
2018-05-10T09:36:15.492Z,32.62
2018-05-10T09:37:15.513Z,32.62
2018-05-10T09:38:15.554Z,32.81
2018-05-10T09:39:15.680Z,32.62
2018-05-10T09:40:15.595Z,32.23
2018-05-10T09:41:15.646Z,32.62
2018-05-10T09:42:15.648Z,32.62
2018-05-10T09:43:15.690Z,32.52
2018-05-10T09:44:15.704Z,32.42
2018-05-10T09:45:15.739Z,32.53
2018-05-10T09:46:15.808Z,32.15
2018-05-10T09:47:15.783Z,32.24
2018-05-10T09:48:15.819Z,32.24
2018-05-10T09:49:15.586Z,32.24
2018-05-10T09:50:15.599Z,31.96
2018-05-10T09:51:15.905Z,31.57
2018-05-10T09:52:15.668Z,31.67
2018-05-10T09:53:15.680Z,31.57
2018-05-10T09:54:15.710Z,31.57
2018-05-10T09:55:16.023Z,31.38
2018-05-10T09:56:16.052Z,31.48
2018-05-10T09:57:16.055Z,31.57
2018-05-10T09:58:16.083Z,31.3
2018-05-10T09:59:16.114Z,31.4
2018-05-10T10:00:16.160Z,31.01
2018-05-10T10:01:16.167Z,31.2
2018-05-10T10:02:16.266Z,31.01
2018-05-10T10:03:16.236Z,31.1
2018-05-10T10:04:16.273Z,31.1
2018-05-10T10:05:16.286Z,30.93
2018-05-10T10:06:16.431Z,31.02
2018-05-10T10:07:16.357Z,30.54
2018-05-10T10:08:16.106Z,30.73
2018-05-10T10:09:16.128Z,30.73
2018-05-10T10:10:16.156Z,30.26
2018-05-10T10:11:16.463Z,30.26
2018-05-10T10:12:16.269Z,29.96
2018-05-10T10:13:16.510Z,29.86
2018-05-10T10:14:16.533Z,29.86
2018-05-10T10:15:16.562Z,30.26
2018-05-10T10:16:16.609Z,29.86
2018-05-10T10:17:16.638Z,29.77
2018-05-10T10:18:16.389Z,29.59
2018-05-10T10:19:16.408Z,29.79
2018-05-10T10:20:16.723Z,29.39
2018-05-10T10:21:16.736Z,29.1
2018-05-10T10:22:16.769Z,29.2
2018-05-10T10:23:16.519Z,29.39
2018-05-10T10:24:16.819Z,29.59
2018-05-10T10:25:16.976Z,29.2
2018-05-10T10:26:16.883Z,28.81
2018-05-10T10:27:16.991Z,28.71
2018-05-10T10:28:16.938Z,28.81
2018-05-10T10:29:16.963Z,29.02
2018-05-10T10:30:16.994Z,29.02
2018-05-10T10:31:17.041Z,28.81
2018-05-10T10:32:17.141Z,28.72
2018-05-10T10:33:17.088Z,28.63
2018-05-10T10:34:17.104Z,28.04
2018-05-10T10:35:17.139Z,28.14
2018-05-10T10:36:17.160Z,28.23
2018-05-10T10:37:17.254Z,28.04
2018-05-10T10:38:16.981Z,28.14
2018-05-10T10:39:17.266Z,28.23
2018-05-10T10:40:17.354Z,27.94
2018-05-10T10:41:17.315Z,27.84
2018-05-10T10:42:17.341Z,27.84
2018-05-10T10:43:17.390Z,27.84
2018-05-10T10:44:17.146Z,28.23
2018-05-10T10:45:17.427Z,27.86
2018-05-10T10:46:17.469Z,27.95
2018-05-10T10:47:17.229Z,27.95
2018-05-10T10:48:17.512Z,27.66
2018-05-10T10:49:17.540Z,27.76
2018-05-10T10:50:17.584Z,27.47
2018-05-10T10:51:17.624Z,27.76
2018-05-10T10:52:17.649Z,27.76
2018-05-10T10:53:17.659Z,27.58
2018-05-10T10:54:17.737Z,27.19
2018-05-10T10:55:17.720Z,27.28
2018-05-10T10:56:17.803Z,27.67
2018-05-10T10:57:17.785Z,27.38
2018-05-10T10:58:17.576Z,27.19
2018-05-10T10:59:17.855Z,27.19
2018-05-10T11:00:17.882Z,27.19
2018-05-10T11:01:17.902Z,27.09
2018-05-10T11:02:18.046Z,27.19
2018-05-10T11:03:17.981Z,27.38
2018-05-10T11:04:18.016Z,27.38
2018-05-10T11:05:17.765Z,27.39
2018-05-10T11:06:18.047Z,27.39
2018-05-10T11:07:18.073Z,27.2
2018-05-10T11:08:17.841Z,27
2018-05-10T11:09:18.231Z,27
2018-05-10T11:10:18.181Z,27.29
2018-05-10T11:11:18.213Z,26.51
2018-05-10T11:12:18.249Z,26.72
2018-05-10T11:13:18.280Z,26.53
2018-05-10T11:14:18.288Z,26.72
2018-05-10T11:15:18.337Z,26.43
2018-05-10T11:16:18.083Z,26.72
2018-05-10T11:17:18.388Z,26.54
2018-05-10T11:18:18.427Z,25.95
2018-05-10T11:19:18.467Z,26.05
2018-05-10T11:20:18.483Z,26.54
2018-05-10T11:21:18.231Z,26.05
2018-05-10T11:22:18.259Z,26.15
2018-05-10T11:23:18.562Z,26.05
2018-05-10T11:24:18.605Z,25.87
2018-05-10T11:25:18.624Z,26.05
2018-05-10T11:26:18.672Z,25.87
2018-05-10T11:27:18.450Z,25.77
2018-05-10T11:28:18.723Z,25.77
2018-05-10T11:29:18.484Z,25.48
2018-05-10T11:30:18.777Z,25.28
2018-05-10T11:31:18.826Z,25.28
2018-05-10T11:32:18.840Z,25.68
2018-05-10T11:33:18.995Z,25.1
2018-05-10T11:34:18.724Z,25.29
2018-05-10T11:35:18.939Z,25.2
2018-05-10T11:36:19.151Z,24.8
2018-05-10T11:37:18.735Z,24.6
2018-05-10T11:38:19.032Z,24.6
2018-05-10T11:39:19.067Z,24.71
2018-05-10T11:40:19.095Z,24.41
2018-05-10T11:41:19.115Z,24.32
2018-05-10T11:42:19.152Z,24.42
2018-05-10T11:43:19.191Z,24.22
2018-05-10T11:44:19.224Z,24.42
2018-05-10T11:45:19.249Z,24.42
2018-05-10T11:46:19.266Z,24.03
2018-05-10T11:47:19.319Z,23.84
2018-05-10T11:48:19.399Z,23.94
2018-05-10T11:49:19.395Z,24.14
2018-05-10T11:50:19.407Z,23.65
2018-05-10T11:51:19.428Z,23.84
2018-05-10T11:52:19.196Z,23.65
2018-05-10T11:53:19.485Z,23.74
2018-05-10T11:54:19.517Z,23.85
2018-05-10T11:55:19.322Z,23.46
2018-05-10T11:56:19.583Z,23.17
2018-05-10T11:57:19.736Z,23.46
2018-05-10T11:58:19.644Z,22.98
2018-05-10T11:59:19.409Z,23.27
2018-05-10T12:00:19.722Z,22.98
2018-05-10T12:01:19.752Z,23.28
2018-05-10T12:02:19.765Z,23.08
2018-05-10T12:03:19.805Z,22.59
2018-05-10T12:04:19.570Z,22.59
2018-05-10T12:05:19.861Z,22.49
2018-05-10T12:06:19.900Z,22.69
2018-05-10T12:07:19.942Z,21.9
2018-05-10T12:08:19.953Z,21.52
2018-05-10T12:09:19.991Z,21.8
2018-05-10T12:10:20.041Z,21.9
2018-05-10T12:11:20.069Z,21.22
2018-05-10T12:12:19.818Z,21.31
2018-05-10T12:13:20.149Z,21.12
2018-05-10T12:14:20.149Z,21.03
2018-05-10T12:15:20.201Z,20.54
2018-05-10T12:16:20.209Z,20.23
2018-05-10T12:17:20.262Z,20.04
2018-05-10T12:18:20.295Z,20.14
2018-05-10T12:19:20.477Z,19.85
2018-05-10T12:20:20.179Z,19.95
2018-05-10T12:21:20.116Z,19.95
2018-05-10T12:22:20.419Z,19.95
2018-05-10T12:23:20.177Z,19.75
2018-05-10T12:24:20.214Z,19.16
2018-05-10T12:25:20.239Z,19.56
2018-05-10T12:26:20.550Z,18.87
2018-05-10T12:27:20.293Z,18.67
2018-05-10T12:28:20.605Z,19.06
2018-05-10T12:29:20.629Z,19.06
2018-05-10T12:30:20.395Z,19.06
2018-05-10T12:31:20.708Z,19.16
2018-05-10T12:32:20.739Z,18.87
2018-05-10T12:33:20.770Z,18.67
2018-05-10T12:34:20.803Z,18.37
2018-05-10T12:35:20.553Z,18.48
2018-05-10T12:36:20.595Z,18.37
2018-05-10T12:37:20.921Z,18.96
2018-05-10T12:38:20.930Z,18.77
2018-05-10T12:39:20.951Z,18.57
2018-05-10T12:40:21.001Z,18.77
2018-05-10T12:41:20.761Z,18.48
2018-05-10T12:42:21.066Z,18.37
2018-05-10T12:43:20.816Z,18.18
2018-05-10T12:44:21.128Z,18.48
2018-05-10T12:45:21.150Z,17.98
2018-05-10T12:46:21.199Z,18.08
2018-05-10T12:47:21.227Z,18.37
2018-05-10T12:48:21.241Z,18.48
2018-05-10T12:49:21.012Z,18.37
2018-05-10T12:50:21.312Z,18.96
2018-05-10T12:51:21.360Z,18.48
2018-05-10T12:52:21.391Z,18.67
2018-05-10T12:53:21.426Z,18.37
2018-05-10T12:54:21.443Z,18.29